Flight Track Log - Related Links

Times and Time Zones

All times are in EDT time to prevent confusion due to time zone crossing. See the UAL3776 flight status page for this flight to view local times or setup timezone preferences in your user account.

Time Position Orientation Groundspeed Altitude Reporting Facility
EDT Latitude Longitude Course Direction KTS MPH feet Rate Location/Type
Tue 11:59:56 AM 25.7983 -80.2675 81° East 141 162 1,100  Level Miami Center
Tue 12:00:34 PM 25.8033 -80.2331 81° East 184 212 2,500 2,563 Climbing Miami Center
Tue 12:01:32 PM 25.8131 -80.1711 80° East 205 236 5,200 2,308 Climbing Miami Center
Tue 12:02:31 PM 25.8675 -80.1656 North 250 288 7,000 908 Climbing Miami Center
Tue 12:03:31 PM 25.9442 -80.1956 341° North 268 308 7,000 800 Level Miami Center
Tue 12:04:31 PM 26.0119 -80.2414 329° Northwest 275 316 8,600 1,900 Climbing Miami Center
Tue 12:05:31 PM 26.0714 -80.2869 325° Northwest 290 334 10,800 2,350 Climbing Miami Center
Tue 12:06:31 PM 26.1431 -80.3536 320° Northwest 295 339 13,300 1,650 Climbing Miami Center
Tue 12:07:31 PM 26.2106 -80.4136 321° Northwest 320 368 14,100 1,450 Climbing Miami Center
Tue 12:08:31 PM 26.3094 -80.4675 334° Northwest 349 402 16,200 1,900 Climbing Miami Center
Tue 12:09:31 PM 26.3939 -80.5094 336° Northwest 359 413 17,900 1,550 Climbing Miami Center
Tue 12:10:31 PM 26.4953 -80.5567 337° Northwest 359 413 19,300 1,350 Climbing Miami Center
Tue 12:11:31 PM 26.5858 -80.6014 336° Northwest 370 426 20,600 1,400 Climbing Miami Center
Tue 12:12:31 PM 26.6953 -80.6514 338° Northwest 380 437 22,100 1,350 Climbing Miami Center
Tue 12:13:31 PM 26.7861 -80.6939 337° Northwest 390 449 23,300 1,250 Climbing Miami Center
Tue 12:14:31 PM 26.8936 -80.7347 341° North 390 449 24,600 1,200 Climbing Miami Center
Tue 12:15:31 PM 26.9989 -80.7731 342° North 390 449 25,700 1,091 Climbing Miami Center
Tue 12:16:32 PM 27.1106 -80.8142 342° North 403 464 26,800 1,000 Climbing Miami Center
Tue 12:17:31 PM 27.2203 -80.8553 342° North 409 471 27,700 1,008 Climbing Miami Center
Tue 12:18:31 PM 27.3361 -80.8919 344° North 417 480 28,800 1,200 Climbing Miami Center
Tue 12:19:31 PM 27.4519 -80.9336 342° North 429 494 30,100 1,500 Climbing Miami Center
Tue 12:20:31 PM 27.5592 -80.9725 342° North 424 488 31,800 1,500 Climbing Miami Center
Tue 12:21:31 PM 27.6708 -81.0139 342° North 418 481 33,100 1,140 Climbing Miami Center
Tue 12:22:32 PM 27.7739 -81.0531 341° North 407 468 34,100 942 Climbing Miami Center
Tue 12:23:32 PM 27.8917 -81.0972 342° North 401 461 35,000 450 Climbing Miami Center
Tue 12:24:32 PM 28.0011 -81.1342 343° North 401 461 35,000  Level Miami Center
Tue 12:25:31 PM 28.1194 -81.1553 351° North 420 483 35,000  Level Miami Center
Tue 12:26:31 PM 28.2339 -81.1714 353° North 448 516 35,000  Level Miami Center
Tue 12:27:31 PM 28.3625 -81.1928 352° North 454 522 35,000  Level Miami Center
Tue 12:28:31 PM 28.4914 -81.2119 353° North 465 535 35,000  Level Miami Center
Tue 12:29:31 PM 28.6200 -81.2311 353° North 465 535 35,000  Level Miami Center
Tue 12:30:19 PM 28.7364 -81.2517 351° North 460 529 35,000  Level Jacksonville Center
Tue 12:31:19 PM 28.8617 -81.2711 352° North 465 535 35,000  Level Jacksonville Center
Tue 12:32:19 PM 28.9914 -81.2928 352° North 465 535 35,000  Level Jacksonville Center
Tue 12:33:19 PM 29.1231 -81.3072 355° North 465 535 35,000  Level Jacksonville Center
Tue 12:34:19 PM 29.2525 -81.3144 357° North 465 535 35,000  Level Jacksonville Center
Tue 12:35:19 PM 29.3842 -81.3244 356° North 465 535 35,000  Level Jacksonville Center
Tue 12:36:19 PM 29.5117 -81.3319 357° North 460 529 35,000  Level Jacksonville Center
Tue 12:37:19 PM 29.6433 -81.3392 357° North 465 535 35,000  Level Jacksonville Center
Tue 12:38:19 PM 29.7750 -81.3492 356° North 465 535 35,000  Level Jacksonville Center
Tue 12:39:19 PM 29.9064 -81.3567 357° North 465 535 35,000  Level Jacksonville Center
Tue 12:40:19 PM 30.0403 -81.3642 357° North 465 535 35,000  Level Jacksonville Center
Tue 12:41:19 PM 30.1719 -81.3692 358° North 465 535 35,000  Level Jacksonville Center
Tue 12:42:19 PM 30.3033 -81.3767 357° North 470 541 35,000  Level Jacksonville Center
Tue 12:43:19 PM 30.4350 -81.3867 356° North 470 541 35,000  Level Jacksonville Center
Tue 12:44:19 PM 30.5667 -81.3944 357° North 470 541 35,000  Level Jacksonville Center
Tue 12:45:19 PM 30.6983 -81.4019 357° North 470 541 35,000  Level Jacksonville Center
Tue 12:46:19 PM 30.8300 -81.4119 356° North 470 541 35,000  Level Jacksonville Center
Tue 12:47:19 PM 30.9594 -81.4197 357° North 470 541 35,000  Level Jacksonville Center
Tue 12:48:19 PM 31.0892 -81.4297 356° North 470 541 35,000  Level Jacksonville Center
Tue 12:49:19 PM 31.2103 -81.4278 North 470 541 35,000  Level Jacksonville Center
Tue 12:50:19 PM 31.3369 -81.3772 19° North 475 547 35,000  Level Jacksonville Center
Tue 12:51:19 PM 31.4717 -81.2994 26° Northeast 472 543 35,000  Level Jacksonville Center
Tue 12:52:19 PM 31.5836 -81.2414 24° Northeast 487 560 35,000  Level Jacksonville Center
Tue 12:53:19 PM 31.7206 -81.1683 24° Northeast 487 560 35,000  Level Jacksonville Center
Tue 12:54:19 PM 31.8428 -81.1000 25° Northeast 480 552 35,000  Level Jacksonville Center
Tue 12:55:19 PM 31.9567 -81.0389 24° Northeast 485 558 35,000  Level Jacksonville Center
Tue 12:56:19 PM 32.0914 -80.9650 25° Northeast 485 558 35,000  Level Jacksonville Center
Tue 12:57:19 PM 32.2031 -80.9064 24° Northeast 485 558 35,000  Level Jacksonville Center
Tue 12:58:19 PM 32.3397 -80.8319 25° Northeast 479 551 35,000  Level Jacksonville Center
Tue 12:59:19 PM 32.4597 -80.7628 26° Northeast 484 557 35,000  Level Jacksonville Center
Tue 01:00:19 PM 32.5817 -80.6958 25° Northeast 489 563 35,000  Level Jacksonville Center
Tue 01:01:19 PM 32.7058 -80.6261 25° Northeast 481 554 35,000  Level Jacksonville Center
Tue 01:02:19 PM 32.8297 -80.5564 25° Northeast 481 554 35,000  Level Jacksonville Center
Tue 01:03:19 PM 32.9536 -80.4889 25° Northeast 481 554 35,000  Level Jacksonville Center
Tue 01:04:19 PM 33.0797 -80.4233 24° Northeast 481 554 35,000  Level Jacksonville Center
Tue 01:05:19 PM 33.2014 -80.3456 28° Northeast 488 562 35,000  Level Jacksonville Center
Tue 01:06:19 PM 33.3150 -80.2878 23° Northeast 483 556 35,000  Level Jacksonville Center
Tue 01:07:19 PM 33.4367 -80.2169 26° Northeast 483 556 35,000  Level Jacksonville Center
Tue 01:08:19 PM 33.5542 -80.1486 26° Northeast 478 550 35,000  Level Jacksonville Center
Tue 01:09:19 PM 33.6756 -80.0800 25° Northeast 478 550 35,000  Level Jacksonville Center
Tue 01:10:19 PM 33.7972 -80.0086 26° Northeast 478 550 35,000  Level Jacksonville Center
Tue 01:11:19 PM 33.9186 -79.9369 26° Northeast 478 550 35,000  Level Jacksonville Center
Tue 01:12:19 PM 34.0381 -79.8703 25° Northeast 478 550 35,000  Level Jacksonville Center
Tue 01:13:19 PM 34.1594 -79.7983 26° Northeast 478 550 35,000  Level Jacksonville Center
Tue 01:14:58 PM 34.3669 -79.6753 26° Northeast 487 560 35,000  Level Washington Center
Tue 01:15:58 PM 34.4861 -79.6081 25° Northeast 487 560 35,000  Level Washington Center
Tue 01:16:58 PM 34.6075 -79.5383 25° Northeast 480 552 35,000  Level Washington Center
Tue 01:17:58 PM 34.7264 -79.4708 25° Northeast 475 547 35,000  Level Washington Center
Tue 01:18:58 PM 34.8478 -79.3983 26° Northeast 475 547 35,000  Level Washington Center
Tue 01:19:58 PM 34.9689 -79.3253 26° Northeast 475 547 35,000  Level Washington Center
Tue 01:20:58 PM 35.0900 -79.2547 25° Northeast 475 547 35,000 -300 Level Washington Center
Tue 01:21:58 PM 35.2133 -79.1842 25° Northeast 475 547 34,400 -850 Descending Washington Center
Tue 01:22:58 PM 35.3408 -79.1058 27° Northeast 481 554 33,300 -1,050 Descending Washington Center
Tue 01:23:58 PM 35.4597 -79.0372 25° Northeast 481 554 32,300 -1,000 Descending Washington Center
Tue 01:24:58 PM 35.5869 -78.9608 26° Northeast 493 567 31,300 -1,000 Descending Washington Center
Tue 01:25:58 PM 35.7122 -78.8844 26° Northeast 493 567 30,300 -1,000 Descending Washington Center
Tue 01:26:58 PM 35.8375 -78.8100 26° Northeast 498 573 29,300 -1,000 Descending Washington Center
Tue 01:27:58 PM 35.9625 -78.7383 25° Northeast 498 573 28,300 -1,000 Descending Washington Center
Tue 01:28:58 PM 36.0811 -78.6708 25° Northeast 481 554 27,300 -650 Descending Washington Center
Tue 01:29:58 PM 36.2017 -78.6011 25° Northeast 476 548 27,000 -150 Descending Washington Center
Tue 01:30:58 PM 36.3244 -78.5308 25° Northeast 476 548 27,000  Level Washington Center
Tue 01:31:58 PM 36.4472 -78.4633 24° Northeast 476 548 27,000  Level Washington Center
Tue 01:32:58 PM 36.5700 -78.3903 26° Northeast 476 548 27,000  Level Washington Center
Tue 01:33:58 PM 36.6797 -78.3294 24° Northeast 476 548 27,000  Level Washington Center
Tue 01:34:58 PM 36.8006 -78.2533 27° Northeast 476 548 27,000  Level Washington Center
Tue 01:35:58 PM 36.9250 -78.1822 25° Northeast 476 548 27,000 -100 Level Washington Center
Tue 01:36:58 PM 37.0475 -78.1136 24° Northeast 476 548 26,800 -1,000 Descending Washington Center
Tue 01:37:58 PM 37.1700 -78.0392 26° Northeast 476 548 25,000 -1,850 Descending Washington Center
Tue 01:38:58 PM 37.2903 -77.9700 25° Northeast 476 548 23,100 -1,000 Descending Washington Center
Tue 01:39:58 PM 37.4086 -77.9031 24° Northeast 469 540 23,000 -50 Descending Washington Center
Tue 01:40:58 PM 37.5267 -77.8308 26° Northeast 464 534 23,000 -200 Level Washington Center
Tue 01:41:58 PM 37.6425 -77.7633 25° Northeast 464 534 22,600 -600 Descending Washington Center
Tue 01:42:58 PM 37.7586 -77.6958 25° Northeast 464 534 21,800 -1,250 Descending Washington Center
Tue 01:43:58 PM 37.8619 -77.6328 26° Northeast 440 506 20,100 -2,150 Descending Washington Center
Tue 01:44:58 PM 37.9567 -77.5775 25° Northeast 403 464 17,500 -2,900 Descending Washington Center
Tue 01:45:58 PM 38.0450 -77.5269 24° Northeast 352 405 14,300 -3,250 Descending Washington Center
Tue 01:46:58 PM 38.1333 -77.4739 25° Northeast 326 375 11,000 -2,150 Descending Washington Center
Tue 01:47:58 PM 38.2031 -77.4308 26° Northeast 307 353 10,000 -500 Descending Washington Center
Tue 01:48:58 PM 38.2872 -77.3800 25° Northeast 302 348 10,000  Level Washington Center
Tue 01:49:58 PM 38.3564 -77.3525 17° North 302 348 10,000 -550 Level Washington Center
Tue 01:50:58 PM 38.4397 -77.3544 359° North 286 329 8,900 -1,750 Descending Washington Center
Tue 01:51:58 PM 38.5208 -77.3617 356° North 291 335 6,500 -1,950 Descending Washington Center
Tue 01:52:58 PM 38.6000 -77.3636 359° North 291 335 5,000 -891 Descending Washington Center
Tue 01:53:39 PM 38.6667 -77.3667 358° North 272 313 5,000 -588 Level Potomac TRACON
Tue 01:54:40 PM 38.7333 -77.3667 360° North 276 318 4,000 -331 Descending Potomac TRACON
Tue 01:56:40 PM 38.9000 -77.3500 North 286 329 4,000 -100 Level Potomac TRACON
Tue 01:58:00 PM 38.9474 -77.4599 North  Level Estimated
Tue 01:58:40 PM 39.0500 -77.3500 North 246 283 3,600  Level Potomac TRACON
Tue 01:59:40 PM 39.1167 -77.3500 360° North 229 264 3,000 -300 Descending Potomac TRACON
Tue 02:00:40 PM 39.1333 -77.4167 288° West 196 226 3,000 -365 Level Potomac TRACON
Tue 02:02:41 PM 39.0333 -77.4333 187° South 171 197 1,900 -597 Descending Potomac TRACON
Tue 02:03:41 PM 39.0000 -77.4333 180° South 132 152 1,200 -700 Descending Potomac TRACON
Tue 02:05:00 PM 38.9474 -77.4599 191° South  Level Estimated
Tue 02:12:00 PM 38.9474 -77.4599 191° South  Level Estimated
Tue 02:13:00 PM 38.9474 -77.4599 191° South  Level Estimated
Tue 02:14:00 PM 38.9474 -77.4599 191° South  Level Estimated
Tue 02:15:00 PM 38.9474 -77.4599 191° South  Level Estimated

Login

Don't have an account? Register now (free) for customized features, flight alerts, and more!